PWSweather.com
Personal Weather Stations
Station Observations
COONRAPIDS
Minneapolis, MN 55433

Minneapolis, MN 55433

Lat: 45.187721, Lon: -93.36828

Elevation: 898

Station Type: Davis Vantage Pro 2

High Low Average
Temperature 65.6°F18.7°C 53.1°F11.7°C 59.4°F15.2°C
Dew Point 60.0°F15.6°C 44.5°F6.9°C 55.0°F12.8°C
Winds 2.3 mph 3.7 kmh Calm Calm Calm SSECalm SSE
Wind Gusts 6.9 mph11.1 kmh -- --
Humidity 91% 54% 85%
Pressure 29.89 in1012.2 mb 29.79 in1008.8 mb -
Precipitation 0.92 in23.4 mm - -
Hour Temp Dew Point Humidity Winds Wind Gusts Pressure Precip Precip Rate Daily Precip Total
12:00 AM 61.3°F16.3°C 44.5°F6.9°C 54% Calm Calm 1.2 mph1.9 kmh 29.82 in1009.8 mb - 0.00 in0.0 mm 0.00 in0.0 mm
12:10 AM 61.1°F16.2°C 44.8°F7.1°C 55% 1.2 mph SE1.9 kmh SE 6.9 mph11.1 kmh 29.82 in1009.8 mb - 0.00 in0.0 mm 0.00 in0.0 mm
12:20 AM 60.7°F15.9°C 44.9°F7.2°C 56% Calm Calm -- 29.82 in1009.8 mb - 0.00 in0.0 mm 0.00 in0.0 mm
12:30 AM 60.3°F15.7°C 45.5°F7.5°C 58% Calm Calm -- 29.83 in1010.2 mb - 0.00 in0.0 mm 0.00 in0.0 mm
12:40 AM 60.0°F15.6°C 45.6°F7.6°C 59% Calm Calm -- 29.83 in1010.2 mb - 0.00 in0.0 mm 0.00 in0.0 mm
12:50 AM 59.8°F15.4°C 45.9°F7.7°C 60% Calm Calm -- 29.87 in1011.5 mb - 0.00 in0.0 mm 0.00 in0.0 mm
01:00 AM 57.4°F14.1°C 48.9°F9.4°C 73% Calm Calm -- 29.88 in1011.9 mb - 0.12 in3.0 mm 0.12 in3.0 mm
01:10 AM 55.5°F13.1°C 49.5°F9.7°C 80% Calm Calm -- 29.87 in1011.5 mb - 0.05 in1.3 mm 0.16 in4.1 mm
01:20 AM 54.5°F12.5°C 49.5°F9.7°C 83% Calm Calm -- 29.87 in1011.5 mb - 0.04 in1.0 mm 0.19 in4.8 mm
01:30 AM 54.0°F12.2°C 49.6°F9.8°C 85% Calm Calm -- 29.87 in1011.5 mb - 0.02 in0.5 mm 0.21 in5.3 mm
01:40 AM 53.8°F12.1°C 49.7°F9.8°C 86% Calm Calm -- 29.86 in1011.2 mb - 0.02 in0.5 mm 0.22 in5.6 mm
01:50 AM 53.6°F12.0°C 49.5°F9.7°C 86% Calm Calm -- 29.86 in1011.2 mb - 0.00 in0.0 mm 0.22 in5.6 mm
02:00 AM 53.6°F12.0°C 49.8°F9.9°C 87% Calm Calm -- 29.88 in1011.9 mb - 0.00 in0.0 mm 0.22 in5.6 mm
02:10 AM 53.5°F11.9°C 49.7°F9.8°C 87% Calm Calm -- 29.86 in1011.2 mb - 0.04 in1.0 mm 0.26 in6.6 mm
02:20 AM 53.5°F11.9°C 49.7°F9.8°C 87% Calm Calm -- 29.86 in1011.2 mb - 0.02 in0.5 mm 0.28 in7.1 mm
02:30 AM 53.4°F11.9°C 49.6°F9.8°C 87% Calm Calm -- 29.83 in1010.2 mb - 0.01 in0.3 mm 0.29 in7.4 mm
02:40 AM 53.2°F11.8°C 49.7°F9.8°C 88% Calm Calm -- 29.82 in1009.8 mb - 0.00 in0.0 mm 0.29 in7.4 mm
02:50 AM 53.2°F11.8°C 49.7°F9.8°C 88% Calm Calm -- 29.81 in1009.5 mb - 0.01 in0.3 mm 0.30 in7.6 mm
03:00 AM 53.2°F11.8°C 49.7°F9.8°C 88% Calm Calm -- 29.81 in1009.5 mb - 0.02 in0.5 mm 0.32 in8.1 mm
03:10 AM 53.2°F11.8°C 49.7°F9.8°C 88% Calm Calm -- 29.80 in1009.1 mb - 0.02 in0.5 mm 0.34 in8.6 mm
03:20 AM 53.1°F11.7°C 49.6°F9.8°C 88% Calm Calm -- 29.79 in1008.8 mb - 0.02 in0.5 mm 0.36 in9.1 mm
03:30 AM 53.1°F11.7°C 49.6°F9.8°C 88% Calm Calm -- 29.80 in1009.1 mb - 0.01 in0.3 mm 0.37 in9.4 mm
03:40 AM 53.2°F11.8°C 49.7°F9.8°C 88% Calm Calm -- 29.82 in1009.8 mb - 0.01 in0.3 mm 0.38 in9.7 mm
03:50 AM 53.2°F11.8°C 49.7°F9.8°C 88% Calm Calm -- 29.81 in1009.5 mb - 0.01 in0.3 mm 0.39 in9.9 mm
04:00 AM 53.3°F11.8°C 49.8°F9.9°C 88% Calm Calm -- 29.81 in1009.5 mb - 0.00 in0.0 mm 0.39 in9.9 mm
04:10 AM 53.3°F11.8°C 49.8°F9.9°C 88% Calm Calm -- 29.80 in1009.1 mb - 0.00 in0.0 mm 0.39 in9.9 mm
04:20 AM 53.3°F11.8°C 49.8°F9.9°C 88% Calm Calm -- 29.81 in1009.5 mb - 0.00 in0.0 mm 0.39 in9.9 mm
04:30 AM 53.4°F11.9°C 50.2°F10.1°C 89% Calm Calm -- 29.81 in1009.5 mb - 0.00 in0.0 mm 0.39 in9.9 mm
04:40 AM 53.5°F11.9°C 50.3°F10.2°C 89% Calm Calm -- 29.81 in1009.5 mb - 0.00 in0.0 mm 0.39 in9.9 mm
04:50 AM 53.5°F11.9°C 50.3°F10.2°C 89% Calm Calm -- 29.81 in1009.5 mb - 0.00 in0.0 mm 0.39 in9.9 mm
05:00 AM 53.5°F11.9°C 50.3°F10.2°C 89% Calm Calm -- 29.82 in1009.8 mb - 0.00 in0.0 mm 0.39 in9.9 mm
05:10 AM 53.4°F11.9°C 50.2°F10.1°C 89% Calm Calm -- 29.82 in1009.8 mb - 0.00 in0.0 mm 0.39 in9.9 mm
05:20 AM 53.3°F11.8°C 50.1°F10.1°C 89% Calm Calm -- 29.82 in1009.8 mb - 0.00 in0.0 mm 0.39 in9.9 mm
05:30 AM 53.4°F11.9°C 50.3°F10.2°C 89% Calm Calm -- 29.82 in1009.8 mb - 0.00 in0.0 mm 0.39 in9.9 mm
05:40 AM 53.6°F12.0°C 50.4°F10.2°C 89% Calm Calm -- 29.82 in1009.8 mb - 0.00 in0.0 mm 0.39 in9.9 mm
05:50 AM 53.7°F12.1°C 50.2°F10.1°C 88% Calm Calm -- 29.83 in1010.2 mb - 0.00 in0.0 mm 0.39 in9.9 mm
06:00 AM 53.9°F12.2°C 50.4°F10.2°C 88% 1.2 mph E1.9 kmh E 2.3 mph3.7 kmh 29.83 in1010.2 mb - 0.00 in0.0 mm 0.39 in9.9 mm
06:10 AM 54.2°F12.3°C 50.7°F10.4°C 88% Calm Calm -- 29.83 in1010.2 mb - 0.00 in0.0 mm 0.39 in9.9 mm
06:20 AM 54.4°F12.4°C 50.9°F10.5°C 88% Calm Calm -- 29.84 in1010.5 mb - 0.00 in0.0 mm 0.39 in9.9 mm
06:30 AM 54.7°F12.6°C 51.2°F10.7°C 88% Calm Calm -- 29.84 in1010.5 mb - 0.00 in0.0 mm 0.39 in9.9 mm
06:40 AM 54.8°F12.7°C 51.3°F10.7°C 88% Calm Calm -- 29.83 in1010.2 mb - 0.00 in0.0 mm 0.39 in9.9 mm
06:50 AM 54.9°F12.7°C 51.1°F10.6°C 87% Calm Calm -- 29.83 in1010.2 mb - 0.00 in0.0 mm 0.39 in9.9 mm
07:00 AM 54.9°F12.7°C 51.4°F10.8°C 88% Calm Calm -- 29.83 in1010.2 mb - 0.00 in0.0 mm 0.39 in9.9 mm
07:10 AM 55.0°F12.8°C 51.5°F10.8°C 88% Calm Calm -- 29.83 in1010.2 mb - 0.00 in0.0 mm 0.39 in9.9 mm
07:20 AM 55.0°F12.8°C 51.5°F10.8°C 88% Calm Calm -- 29.84 in1010.5 mb - 0.00 in0.0 mm 0.39 in9.9 mm
07:30 AM 55.2°F12.9°C 51.7°F10.9°C 88% Calm Calm -- 29.84 in1010.5 mb - 0.00 in0.0 mm 0.39 in9.9 mm
07:40 AM 55.3°F12.9°C 51.8°F11.0°C 88% Calm Calm -- 29.84 in1010.5 mb - 0.00 in0.0 mm 0.39 in9.9 mm
07:50 AM 55.9°F13.3°C 52.4°F11.3°C 88% Calm Calm -- 29.85 in1010.8 mb - 0.00 in0.0 mm 0.39 in9.9 mm
08:00 AM 56.2°F13.4°C 52.4°F11.3°C 87% Calm Calm -- 29.85 in1010.8 mb - 0.00 in0.0 mm 0.39 in9.9 mm
08:10 AM 56.5°F13.6°C 52.7°F11.5°C 87% Calm Calm -- 29.85 in1010.8 mb - 0.00 in0.0 mm 0.39 in9.9 mm
08:20 AM 56.8°F13.8°C 53.0°F11.7°C 87% Calm Calm -- 29.85 in1010.8 mb - 0.00 in0.0 mm 0.39 in9.9 mm
08:30 AM 57.3°F14.1°C 53.5°F11.9°C 87% Calm Calm -- 29.86 in1011.2 mb - 0.00 in0.0 mm 0.39 in9.9 mm
08:40 AM 57.8°F14.3°C 53.6°F12.0°C 86% Calm Calm -- 29.86 in1011.2 mb - 0.00 in0.0 mm 0.39 in9.9 mm
08:50 AM 58.0°F14.4°C 53.5°F11.9°C 85% Calm Calm -- 29.85 in1010.8 mb - 0.00 in0.0 mm 0.39 in9.9 mm
09:00 AM 58.3°F14.6°C 53.8°F12.1°C 85% Calm Calm -- 29.86 in1011.2 mb - 0.00 in0.0 mm 0.39 in9.9 mm
09:10 AM 58.9°F14.9°C 54.1°F12.3°C 84% Calm Calm -- 29.86 in1011.2 mb - 0.00 in0.0 mm 0.39 in9.9 mm
09:20 AM 59.3°F15.2°C 54.1°F12.3°C 83% Calm Calm -- 29.86 in1011.2 mb - 0.00 in0.0 mm 0.39 in9.9 mm
09:30 AM 59.4°F15.2°C 54.3°F12.4°C 83% Calm Calm -- 29.86 in1011.2 mb - 0.00 in0.0 mm 0.39 in9.9 mm
09:40 AM 59.5°F15.3°C 54.3°F12.4°C 83% Calm Calm -- 29.86 in1011.2 mb - 0.00 in0.0 mm 0.39 in9.9 mm
09:50 AM 59.5°F15.3°C 54.3°F12.4°C 83% Calm Calm -- 29.86 in1011.2 mb - 0.00 in0.0 mm 0.39 in9.9 mm
10:00 AM 59.6°F15.3°C 54.8°F12.7°C 84% Calm Calm -- 29.86 in1011.2 mb - 0.00 in0.0 mm 0.39 in9.9 mm
10:10 AM 59.9°F15.5°C 54.7°F12.6°C 83% Calm Calm -- 29.87 in1011.5 mb - 0.00 in0.0 mm 0.39 in9.9 mm
10:20 AM 60.0°F15.6°C 55.2°F12.9°C 84% Calm Calm -- 29.87 in1011.5 mb - 0.00 in0.0 mm 0.39 in9.9 mm
10:30 AM 60.3°F15.7°C 55.1°F12.8°C 83% Calm Calm -- 29.88 in1011.9 mb - 0.00 in0.0 mm 0.39 in9.9 mm
10:40 AM 60.5°F15.8°C 55.3°F12.9°C 83% Calm Calm -- 29.88 in1011.9 mb - 0.00 in0.0 mm 0.39 in9.9 mm
10:50 AM 60.8°F16.0°C 55.6°F13.1°C 83% Calm Calm -- 29.88 in1011.9 mb - 0.00 in0.0 mm 0.39 in9.9 mm
11:00 AM 60.9°F16.1°C 55.7°F13.2°C 83% Calm Calm -- 29.88 in1011.9 mb - 0.00 in0.0 mm 0.39 in9.9 mm
11:10 AM 61.0°F16.1°C 55.8°F13.2°C 83% Calm Calm -- 29.88 in1011.9 mb - 0.00 in0.0 mm 0.39 in9.9 mm
11:20 AM 61.2°F16.2°C 56.0°F13.3°C 83% Calm Calm -- 29.88 in1011.9 mb - 0.00 in0.0 mm 0.39 in9.9 mm
11:30 AM 61.6°F16.4°C 56.4°F13.6°C 83% Calm Calm -- 29.88 in1011.9 mb - 0.00 in0.0 mm 0.39 in9.9 mm
11:40 AM 62.3°F16.8°C 56.7°F13.7°C 82% Calm Calm -- 29.88 in1011.9 mb - 0.00 in0.0 mm 0.39 in9.9 mm
11:50 AM 63.1°F17.3°C 57.2°F14.0°C 81% Calm Calm 2.3 mph3.7 kmh 29.88 in1011.9 mb - 0.00 in0.0 mm 0.39 in9.9 mm
12:00 PM 64.0°F17.8°C 57.4°F14.1°C 79% Calm Calm -- 29.88 in1011.9 mb - 0.00 in0.0 mm 0.39 in9.9 mm
12:10 PM 65.0°F18.3°C 57.6°F14.2°C 77% Calm Calm -- 29.88 in1011.9 mb - 0.00 in0.0 mm 0.39 in9.9 mm
12:20 PM 65.0°F18.3°C 57.2°F14.0°C 76% Calm Calm -- 29.87 in1011.5 mb - 0.00 in0.0 mm 0.39 in9.9 mm
12:30 PM 64.9°F18.3°C 57.5°F14.2°C 77% Calm Calm -- 29.87 in1011.5 mb - 0.00 in0.0 mm 0.39 in9.9 mm
12:40 PM 65.2°F18.4°C 57.8°F14.3°C 77% Calm Calm -- 29.87 in1011.5 mb - 0.00 in0.0 mm 0.39 in9.9 mm
12:50 PM 65.6°F18.7°C 58.6°F14.8°C 78% Calm Calm -- 29.85 in1010.8 mb - 0.00 in0.0 mm 0.39 in9.9 mm
01:00 PM 65.6°F18.7°C 57.8°F14.3°C 76% Calm Calm -- 29.85 in1010.8 mb - 0.00 in0.0 mm 0.39 in9.9 mm
01:10 PM 65.4°F18.6°C 58.0°F14.4°C 77% Calm Calm -- 29.86 in1011.2 mb - 0.00 in0.0 mm 0.39 in9.9 mm
01:20 PM 65.0°F18.3°C 57.6°F14.2°C 77% Calm Calm -- 29.86 in1011.2 mb - 0.00 in0.0 mm 0.39 in9.9 mm
01:30 PM 64.8°F18.2°C 58.1°F14.5°C 79% Calm Calm -- 29.87 in1011.5 mb - 0.00 in0.0 mm 0.39 in9.9 mm
01:40 PM 64.7°F18.2°C 58.4°F14.7°C 80% Calm Calm -- 29.86 in1011.2 mb - 0.00 in0.0 mm 0.39 in9.9 mm
01:50 PM 64.5°F18.1°C 58.5°F14.7°C 81% Calm Calm -- 29.86 in1011.2 mb - 0.00 in0.0 mm 0.39 in9.9 mm
02:00 PM 64.3°F17.9°C 58.7°F14.8°C 82% Calm Calm -- 29.86 in1011.2 mb - 0.00 in0.0 mm 0.39 in9.9 mm
02:10 PM 64.0°F17.8°C 59.1°F15.1°C 84% Calm Calm -- 29.84 in1010.5 mb - 0.00 in0.0 mm 0.39 in9.9 mm
02:20 PM 64.1°F17.8°C 59.5°F15.3°C 85% Calm Calm -- 29.82 in1009.8 mb - 0.01 in0.3 mm 0.40 in10.2 mm
02:30 PM 64.2°F17.9°C 59.6°F15.3°C 85% Calm Calm -- 29.82 in1009.8 mb - 0.00 in0.0 mm 0.40 in10.2 mm
02:40 PM 64.3°F17.9°C 60.0°F15.6°C 86% Calm Calm -- 29.83 in1010.2 mb - 0.00 in0.0 mm 0.40 in10.2 mm
02:50 PM 64.0°F17.8°C 59.7°F15.4°C 86% Calm Calm -- 29.87 in1011.5 mb - 0.01 in0.3 mm 0.41 in10.4 mm
03:00 PM 63.6°F17.6°C 59.4°F15.2°C 86% Calm Calm -- 29.85 in1010.8 mb - 0.00 in0.0 mm 0.41 in10.4 mm
03:10 PM 63.5°F17.5°C 59.6°F15.3°C 87% Calm Calm -- 29.84 in1010.5 mb - 0.01 in0.3 mm 0.42 in10.7 mm
03:20 PM 63.4°F17.4°C 59.5°F15.3°C 87% Calm Calm -- 29.86 in1011.2 mb - 0.00 in0.0 mm 0.42 in10.7 mm
03:30 PM 63.3°F17.4°C 59.7°F15.4°C 88% Calm Calm -- 29.87 in1011.5 mb - 0.03 in0.8 mm 0.45 in11.4 mm
03:40 PM 63.2°F17.3°C 59.6°F15.3°C 88% Calm Calm -- 29.87 in1011.5 mb - 0.00 in0.0 mm 0.45 in11.4 mm
03:50 PM 63.1°F17.3°C 59.5°F15.3°C 88% Calm Calm -- 29.86 in1011.2 mb - 0.01 in0.3 mm 0.46 in11.7 mm
04:00 PM 62.9°F17.2°C 59.3°F15.2°C 88% Calm Calm -- 29.86 in1011.2 mb - 0.01 in0.3 mm 0.47 in11.9 mm
04:10 PM 62.7°F17.1°C 59.1°F15.1°C 88% Calm Calm -- 29.87 in1011.5 mb - 0.01 in0.3 mm 0.48 in12.2 mm
04:20 PM 62.5°F16.9°C 59.2°F15.1°C 89% Calm Calm -- 29.85 in1010.8 mb - 0.05 in1.3 mm 0.53 in13.5 mm
04:30 PM 62.5°F16.9°C 59.2°F15.1°C 89% Calm Calm -- 29.87 in1011.5 mb - 0.01 in0.3 mm 0.54 in13.7 mm
04:40 PM 62.3°F16.8°C 59.0°F15.0°C 89% Calm Calm -- 29.88 in1011.9 mb - 0.01 in0.3 mm 0.55 in14.0 mm
04:50 PM 62.1°F16.7°C 58.8°F14.9°C 89% Calm Calm -- 29.84 in1010.5 mb - 0.01 in0.3 mm 0.56 in14.2 mm
05:00 PM 62.2°F16.8°C 58.9°F14.9°C 89% Calm Calm -- 29.84 in1010.5 mb - 0.00 in0.0 mm 0.56 in14.2 mm
05:10 PM 62.3°F16.8°C 59.0°F15.0°C 89% Calm Calm -- 29.84 in1010.5 mb - 0.00 in0.0 mm 0.56 in14.2 mm
05:20 PM 62.3°F16.8°C 59.0°F15.0°C 89% Calm Calm -- 29.87 in1011.5 mb - 0.00 in0.0 mm 0.56 in14.2 mm
05:30 PM 62.3°F16.8°C 59.0°F15.0°C 89% Calm Calm -- 29.86 in1011.2 mb - 0.00 in0.0 mm 0.56 in14.2 mm
05:40 PM 62.3°F16.8°C 59.4°F15.2°C 90% Calm Calm -- 29.86 in1011.2 mb - 0.01 in0.3 mm 0.57 in14.5 mm
05:50 PM 62.3°F16.8°C 59.3°F15.2°C 90% Calm Calm -- 29.86 in1011.2 mb - 0.01 in0.3 mm 0.57 in14.5 mm
06:00 PM 62.3°F16.8°C 59.3°F15.2°C 90% Calm Calm -- 29.86 in1011.2 mb - 0.01 in0.3 mm 0.58 in14.7 mm
06:10 PM 62.1°F16.7°C 59.1°F15.1°C 90% Calm Calm -- 29.86 in1011.2 mb - 0.02 in0.5 mm 0.60 in15.2 mm
06:20 PM 61.8°F16.6°C 58.8°F14.9°C 90% Calm Calm -- 29.85 in1010.8 mb - 0.01 in0.3 mm 0.61 in15.5 mm
06:30 PM 61.6°F16.4°C 58.7°F14.8°C 90% Calm Calm -- 29.85 in1010.8 mb - 0.00 in0.0 mm 0.61 in15.5 mm
06:40 PM 61.6°F16.4°C 58.6°F14.8°C 90% Calm Calm -- 29.85 in1010.8 mb - 0.00 in0.0 mm 0.61 in15.5 mm
06:50 PM 61.5°F16.4°C 58.5°F14.7°C 90% Calm Calm -- 29.86 in1011.2 mb - 0.00 in0.0 mm 0.61 in15.5 mm
07:00 PM 61.4°F16.3°C 58.4°F14.7°C 90% Calm Calm -- 29.86 in1011.2 mb - 0.01 in0.3 mm 0.62 in15.7 mm
07:10 PM 61.5°F16.4°C 58.5°F14.7°C 90% Calm Calm -- 29.87 in1011.5 mb - 0.00 in0.0 mm 0.62 in15.7 mm
07:20 PM 61.4°F16.3°C 58.4°F14.7°C 90% Calm Calm -- 29.86 in1011.2 mb - 0.01 in0.3 mm 0.63 in16.0 mm
07:30 PM 61.4°F16.3°C 58.4°F14.7°C 90% Calm Calm -- 29.87 in1011.5 mb - 0.01 in0.3 mm 0.64 in16.3 mm
07:40 PM 61.4°F16.3°C 58.4°F14.7°C 90% Calm Calm -- 29.88 in1011.9 mb - 0.09 in2.3 mm 0.73 in18.5 mm
07:50 PM 61.3°F16.3°C 58.3°F14.6°C 90% Calm Calm -- 29.86 in1011.2 mb - 0.05 in1.3 mm 0.77 in19.6 mm
08:00 PM 61.2°F16.2°C 58.2°F14.6°C 90% Calm Calm -- 29.86 in1011.2 mb - 0.00 in0.0 mm 0.77 in19.6 mm
08:10 PM 61.1°F16.2°C 58.1°F14.5°C 90% Calm Calm -- 29.86 in1011.2 mb - 0.00 in0.0 mm 0.77 in19.6 mm
08:20 PM 61.1°F16.2°C 58.1°F14.5°C 90% Calm Calm -- 29.86 in1011.2 mb - 0.00 in0.0 mm 0.77 in19.6 mm
08:30 PM 61.0°F16.1°C 58.0°F14.4°C 90% Calm Calm -- 29.85 in1010.8 mb - 0.00 in0.0 mm 0.77 in19.6 mm
08:40 PM 61.0°F16.1°C 58.0°F14.4°C 90% Calm Calm -- 29.85 in1010.8 mb - 0.00 in0.0 mm 0.77 in19.6 mm
08:50 PM 60.9°F16.1°C 57.9°F14.4°C 90% Calm Calm -- 29.84 in1010.5 mb - 0.00 in0.0 mm 0.77 in19.6 mm
09:00 PM 60.9°F16.1°C 57.9°F14.4°C 90% Calm Calm 2.3 mph3.7 kmh 29.84 in1010.5 mb - 0.00 in0.0 mm 0.77 in19.6 mm
09:10 PM 61.0°F16.1°C 58.0°F14.4°C 90% Calm Calm -- 29.84 in1010.5 mb - 0.01 in0.3 mm 0.78 in19.8 mm
09:20 PM 60.9°F16.1°C 57.9°F14.4°C 90% Calm Calm -- 29.84 in1010.5 mb - 0.01 in0.3 mm 0.79 in20.1 mm
09:30 PM 61.0°F16.1°C 58.0°F14.4°C 90% 2.3 mph W3.7 kmh W 3.5 mph5.6 kmh 29.89 in1012.2 mb - 0.01 in0.3 mm 0.80 in20.3 mm
09:40 PM 60.8°F16.0°C 57.8°F14.3°C 90% Calm Calm -- 29.87 in1011.5 mb - 0.01 in0.3 mm 0.81 in20.6 mm
09:50 PM 60.9°F16.1°C 58.3°F14.6°C 91% Calm Calm -- 29.88 in1011.9 mb - 0.02 in0.5 mm 0.83 in21.1 mm
10:00 PM 61.0°F16.1°C 58.3°F14.6°C 91% Calm Calm -- 29.86 in1011.2 mb - 0.04 in1.0 mm 0.86 in21.8 mm
10:10 PM 61.1°F16.2°C 58.1°F14.5°C 90% Calm Calm -- 29.86 in1011.2 mb - 0.02 in0.5 mm 0.88 in22.4 mm
10:20 PM 61.2°F16.2°C 58.6°F14.8°C 91% Calm Calm -- 29.84 in1010.5 mb - 0.02 in0.5 mm 0.90 in22.9 mm
10:30 PM 61.3°F16.3°C 58.7°F14.8°C 91% Calm Calm -- 29.84 in1010.5 mb - 0.01 in0.3 mm 0.91 in23.1 mm
10:40 PM 61.3°F16.3°C 58.6°F14.8°C 91% Calm Calm -- 29.83 in1010.2 mb - 0.01 in0.3 mm 0.92 in23.4 mm
10:50 PM 61.3°F16.3°C 58.7°F14.8°C 91% Calm Calm -- 29.84 in1010.5 mb - 0.00 in0.0 mm 0.92 in23.4 mm
11:00 PM 61.4°F16.3°C 58.7°F14.8°C 91% Calm Calm -- 29.84 in1010.5 mb - 0.01 in0.3 mm 0.99 in25.1 mm
11:10 PM 61.4°F16.3°C 58.7°F14.8°C 91% Calm Calm -- 29.84 in1010.5 mb - 0.02 in0.5 mm 0.02 in0.5 mm
11:20 PM 61.6°F16.4°C 58.9°F14.9°C 91% Calm Calm -- 29.86 in1011.2 mb - 0.01 in0.3 mm 0.03 in0.8 mm
11:30 PM 61.7°F16.5°C 59.0°F15.0°C 91% Calm Calm -- 29.86 in1011.2 mb - 0.03 in0.8 mm 0.06 in1.5 mm
11:40 PM 61.7°F16.5°C 59.0°F15.0°C 91% Calm Calm -- 29.85 in1010.8 mb - 0.14 in3.6 mm 0.20 in5.1 mm
11:50 PM 61.6°F16.4°C 58.9°F14.9°C 91% Calm Calm -- 29.84 in1010.5 mb - 0.04 in1.0 mm 0.23 in5.8 mm